sensor_id;sensor_type;location;lat;lon;timestamp;temperature;humidity
3478;DHT22;37937;61.490;23.506;2022-10-16T00:00:32;11.10;99.90
3478;DHT22;37937;61.490;23.506;2022-10-16T00:02:58;11.10;99.90
3478;DHT22;37937;61.490;23.506;2022-10-16T00:05:24;11.10;99.90
3478;DHT22;37937;61.490;23.506;2022-10-16T00:07:50;11.10;99.90
3478;DHT22;37937;61.490;23.506;2022-10-16T00:10:15;11.20;99.90
3478;DHT22;37937;61.490;23.506;2022-10-16T00:12:41;11.40;99.90
3478;DHT22;37937;61.490;23.506;2022-10-16T00:15:07;11.20;99.90
3478;DHT22;37937;61.490;23.506;2022-10-16T00:17:32;11.30;99.90
3478;DHT22;37937;61.490;23.506;2022-10-16T00:19:58;11.30;99.90
3478;DHT22;37937;61.490;23.506;2022-10-16T00:22:24;11.30;99.90
3478;DHT22;37937;61.490;23.506;2022-10-16T00:24:50;11.30;99.90
3478;DHT22;37937;61.490;23.506;2022-10-16T00:27:15;11.30;99.90
3478;DHT22;37937;61.490;23.506;2022-10-16T00:29:42;11.40;99.90
3478;DHT22;37937;61.490;23.506;2022-10-16T00:32:07;11.40;99.90
3478;DHT22;37937;61.490;23.506;2022-10-16T00:34:33;11.40;99.90
3478;DHT22;37937;61.490;23.506;2022-10-16T00:36:59;11.30;99.90
3478;DHT22;37937;61.490;23.506;2022-10-16T00:39:25;11.30;99.90
3478;DHT22;37937;61.490;23.506;2022-10-16T00:41:51;11.40;99.90
3478;DHT22;37937;61.490;23.506;2022-10-16T00:47:00;11.30;99.90
3478;DHT22;37937;61.490;23.506;2022-10-16T00:49:26;11.30;99.90
3478;DHT22;37937;61.490;23.506;2022-10-16T00:51:53;11.30;99.90
3478;DHT22;37937;61.490;23.506;2022-10-16T00:54:19;11.30;99.90
3478;DHT22;37937;61.490;23.506;2022-10-16T00:56:46;11.20;99.90
3478;DHT22;37937;61.490;23.506;2022-10-16T00:59:15;11.20;99.90
3478;DHT22;37937;61.490;23.506;2022-10-16T01:01:41;11.30;99.90
3478;DHT22;37937;61.490;23.506;2022-10-16T01:04:07;11.30;99.90
3478;DHT22;37937;61.490;23.506;2022-10-16T01:06:56;11.20;99.90
3478;DHT22;37937;61.490;23.506;2022-10-16T01:09:23;11.30;99.90
3478;DHT22;37937;61.490;23.506;2022-10-16T01:11:56;11.40;99.90
3478;DHT22;37937;61.490;23.506;2022-10-16T01:14:40;11.40;99.90
3478;DHT22;37937;61.490;23.506;2022-10-16T01:17:15;11.30;99.90
3478;DHT22;37937;61.490;23.506;2022-10-16T01:22:30;11.30;99.90
3478;DHT22;37937;61.490;23.506;2022-10-16T01:24:58;11.10;99.90
3478;DHT22;37937;61.490;23.506;2022-10-16T01:27:27;11.30;99.90
3478;DHT22;37937;61.490;23.506;2022-10-16T01:35:18;11.10;99.90
3478;DHT22;37937;61.490;23.506;2022-10-16T01:37:47;11.20;99.90
3478;DHT22;37937;61.490;23.506;2022-10-16T01:40:14;11.30;99.90
3478;DHT22;37937;61.490;23.506;2022-10-16T01:42:42;11.30;99.90
3478;DHT22;37937;61.490;23.506;2022-10-16T01:45:10;11.10;99.90
3478;DHT22;37937;61.490;23.506;2022-10-16T01:47:38;11.30;99.90
3478;DHT22;37937;61.490;23.506;2022-10-16T01:50:05;11.30;99.90
3478;DHT22;37937;61.490;23.506;2022-10-16T01:52:32;11.30;99.90
3478;DHT22;37937;61.490;23.506;2022-10-16T01:54:59;11.20;99.90
3478;DHT22;37937;61.490;23.506;2022-10-16T01:57:25;11.30;99.90
3478;DHT22;37937;61.490;23.506;2022-10-16T01:59:53;11.00;99.90
3478;DHT22;37937;61.490;23.506;2022-10-16T02:02:19;11.20;99.90
3478;DHT22;37937;61.490;23.506;2022-10-16T02:04:46;11.20;99.90
3478;DHT22;37937;61.490;23.506;2022-10-16T02:07:14;11.20;99.90
3478;DHT22;37937;61.490;23.506;2022-10-16T02:09:40;11.10;99.90
3478;DHT22;37937;61.490;23.506;2022-10-16T02:12:16;11.30;99.90
3478;DHT22;37937;61.490;23.506;2022-10-16T02:14:44;11.20;99.90
3478;DHT22;37937;61.490;23.506;2022-10-16T02:17:14;11.10;99.90
3478;DHT22;37937;61.490;23.506;2022-10-16T02:19:40;11.30;99.90
3478;DHT22;37937;61.490;23.506;2022-10-16T02:22:06;11.40;99.90
3478;DHT22;37937;61.490;23.506;2022-10-16T02:24:35;11.40;99.90
3478;DHT22;37937;61.490;23.506;2022-10-16T02:29:29;11.30;99.90
3478;DHT22;37937;61.490;23.506;2022-10-16T02:32:00;11.30;99.90
3478;DHT22;37937;61.490;23.506;2022-10-16T02:34:27;11.10;99.90
3478;DHT22;37937;61.490;23.506;2022-10-16T02:36:55;11.20;99.90
3478;DHT22;37937;61.490;23.506;2022-10-16T02:39:21;11.20;99.90
3478;DHT22;37937;61.490;23.506;2022-10-16T02:41:47;11.20;99.90
3478;DHT22;37937;61.490;23.506;2022-10-16T02:44:13;11.30;99.90
3478;DHT22;37937;61.490;23.506;2022-10-16T02:46:39;11.20;99.90
3478;DHT22;37937;61.490;23.506;2022-10-16T02:49:04;11.20;99.90
3478;DHT22;37937;61.490;23.506;2022-10-16T02:51:30;11.20;99.90
3478;DHT22;37937;61.490;23.506;2022-10-16T02:53:56;11.20;99.90
3478;DHT22;37937;61.490;23.506;2022-10-16T02:56:21;11.20;99.90
3478;DHT22;37937;61.490;23.506;2022-10-16T02:58:47;11.20;99.90
3478;DHT22;37937;61.490;23.506;2022-10-16T03:01:13;11.20;99.90
3478;DHT22;37937;61.490;23.506;2022-10-16T03:03:39;11.20;99.90
3478;DHT22;37937;61.490;23.506;2022-10-16T03:06:05;11.30;99.90
3478;DHT22;37937;61.490;23.506;2022-10-16T03:08:31;11.20;99.90
3478;DHT22;37937;61.490;23.506;2022-10-16T03:10:57;11.20;99.90
3478;DHT22;37937;61.490;23.506;2022-10-16T03:13:22;11.30;99.90
3478;DHT22;37937;61.490;23.506;2022-10-16T03:15:48;11.30;99.90
3478;DHT22;37937;61.490;23.506;2022-10-16T03:18:14;11.40;99.90
3478;DHT22;37937;61.490;23.506;2022-10-16T03:20:40;11.40;99.90
3478;DHT22;37937;61.490;23.506;2022-10-16T03:23:06;11.50;99.90
3478;DHT22;37937;61.490;23.506;2022-10-16T03:25:33;11.40;99.90
3478;DHT22;37937;61.490;23.506;2022-10-16T03:27:59;11.30;99.90
3478;DHT22;37937;61.490;23.506;2022-10-16T03:30:24;11.40;99.90
3478;DHT22;37937;61.490;23.506;2022-10-16T03:32:50;11.40;99.90
3478;DHT22;37937;61.490;23.506;2022-10-16T03:35:22;11.40;99.90
3478;DHT22;37937;61.490;23.506;2022-10-16T03:37:49;11.40;99.90
3478;DHT22;37937;61.490;23.506;2022-10-16T03:40:15;11.30;99.90
3478;DHT22;37937;61.490;23.506;2022-10-16T03:42:41;11.40;99.90
3478;DHT22;37937;61.490;23.506;2022-10-16T03:45:07;11.50;99.90
3478;DHT22;37937;61.490;23.506;2022-10-16T03:47:33;11.40;99.90
3478;DHT22;37937;61.490;23.506;2022-10-16T03:49:59;11.50;99.90
3478;DHT22;37937;61.490;23.506;2022-10-16T03:52:25;11.30;99.90
3478;DHT22;37937;61.490;23.506;2022-10-16T03:54:51;11.40;99.90
3478;DHT22;37937;61.490;23.506;2022-10-16T03:57:16;11.30;99.90
3478;DHT22;37937;61.490;23.506;2022-10-16T03:59:42;11.20;99.90
3478;DHT22;37937;61.490;23.506;2022-10-16T04:02:08;11.30;99.90
3478;DHT22;37937;61.490;23.506;2022-10-16T04:04:33;11.40;99.90
3478;DHT22;37937;61.490;23.506;2022-10-16T04:06:59;11.50;99.90
3478;DHT22;37937;61.490;23.506;2022-10-16T04:09:25;11.50;99.90
3478;DHT22;37937;61.490;23.506;2022-10-16T04:11:50;11.50;99.90
3478;DHT22;37937;61.490;23.506;2022-10-16T04:14:16;11.50;99.90
3478;DHT22;37937;61.490;23.506;2022-10-16T04:16:42;11.50;99.90
3478;DHT22;37937;61.490;23.506;2022-10-16T04:19:08;11.60;99.90
3478;DHT22;37937;61.490;23.506;2022-10-16T04:21:34;11.50;99.90
3478;DHT22;37937;61.490;23.506;2022-10-16T04:24:00;11.50;99.90
3478;DHT22;37937;61.490;23.506;2022-10-16T04:26:25;11.50;99.90
3478;DHT22;37937;61.490;23.506;2022-10-16T04:28:51;11.50;99.90
3478;DHT22;37937;61.490;23.506;2022-10-16T04:31:17;11.50;99.90
3478;DHT22;37937;61.490;23.506;2022-10-16T04:33:43;11.50;99.90
3478;DHT22;37937;61.490;23.506;2022-10-16T04:36:09;11.50;99.90
3478;DHT22;37937;61.490;23.506;2022-10-16T04:38:35;11.50;99.90
3478;DHT22;37937;61.490;23.506;2022-10-16T04:41:03;11.50;99.90
3478;DHT22;37937;61.490;23.506;2022-10-16T04:43:29;11.60;99.90
3478;DHT22;37937;61.490;23.506;2022-10-16T04:45:54;11.50;99.90
3478;DHT22;37937;61.490;23.506;2022-10-16T04:48:21;11.50;99.90
3478;DHT22;37937;61.490;23.506;2022-10-16T04:50:47;11.40;99.90
3478;DHT22;37937;61.490;23.506;2022-10-16T04:53:12;11.50;99.90
3478;DHT22;37937;61.490;23.506;2022-10-16T04:55:38;11.50;99.90
3478;DHT22;37937;61.490;23.506;2022-10-16T04:58:04;11.50;99.90
3478;DHT22;37937;61.490;23.506;2022-10-16T05:00:30;11.50;99.90
3478;DHT22;37937;61.490;23.506;2022-10-16T05:02:55;11.60;99.90
3478;DHT22;37937;61.490;23.506;2022-10-16T05:05:22;11.50;99.90
3478;DHT22;37937;61.490;23.506;2022-10-16T05:07:48;11.50;99.90
3478;DHT22;37937;61.490;23.506;2022-10-16T05:10:15;11.40;99.90
3478;DHT22;37937;61.490;23.506;2022-10-16T05:12:40;11.40;99.90
3478;DHT22;37937;61.490;23.506;2022-10-16T05:15:06;11.50;99.90
3478;DHT22;37937;61.490;23.506;2022-10-16T05:17:32;11.40;99.90
3478;DHT22;37937;61.490;23.506;2022-10-16T05:19:58;11.40;99.90
3478;DHT22;37937;61.490;23.506;2022-10-16T05:22:23;11.50;99.90
3478;DHT22;37937;61.490;23.506;2022-10-16T05:24:49;11.50;99.90
3478;DHT22;37937;61.490;23.506;2022-10-16T05:27:14;11.60;99.90
3478;DHT22;37937;61.490;23.506;2022-10-16T05:29:45;11.70;99.90
3478;DHT22;37937;61.490;23.506;2022-10-16T05:32:11;11.60;99.90
3478;DHT22;37937;61.490;23.506;2022-10-16T05:34:37;11.60;99.90
3478;DHT22;37937;61.490;23.506;2022-10-16T05:37:03;11.60;99.90
3478;DHT22;37937;61.490;23.506;2022-10-16T05:39:28;11.60;99.90
3478;DHT22;37937;61.490;23.506;2022-10-16T05:41:54;11.60;99.90
3478;DHT22;37937;61.490;23.506;2022-10-16T05:44:19;11.60;99.90
3478;DHT22;37937;61.490;23.506;2022-10-16T05:46:46;11.70;99.90
3478;DHT22;37937;61.490;23.506;2022-10-16T05:49:12;11.60;99.90
3478;DHT22;37937;61.490;23.506;2022-10-16T05:51:38;11.60;99.90
3478;DHT22;37937;61.490;23.506;2022-10-16T05:54:03;11.70;99.90
3478;DHT22;37937;61.490;23.506;2022-10-16T05:56:29;11.60;99.90
3478;DHT22;37937;61.490;23.506;2022-10-16T05:58:54;11.50;99.90
3478;DHT22;37937;61.490;23.506;2022-10-16T06:01:20;11.50;99.90
3478;DHT22;37937;61.490;23.506;2022-10-16T06:03:51;11.50;99.90
3478;DHT22;37937;61.490;23.506;2022-10-16T06:06:18;11.60;99.90
3478;DHT22;37937;61.490;23.506;2022-10-16T06:08:44;11.50;99.90
3478;DHT22;37937;61.490;23.506;2022-10-16T06:11:13;11.60;99.90
3478;DHT22;37937;61.490;23.506;2022-10-16T06:13:39;11.50;99.90
3478;DHT22;37937;61.490;23.506;2022-10-16T06:16:08;11.60;99.90
3478;DHT22;37937;61.490;23.506;2022-10-16T06:18:33;11.60;99.90
3478;DHT22;37937;61.490;23.506;2022-10-16T06:20:59;11.50;99.90
3478;DHT22;37937;61.490;23.506;2022-10-16T06:23:25;11.50;99.90
3478;DHT22;37937;61.490;23.506;2022-10-16T06:25:51;11.50;99.90
3478;DHT22;37937;61.490;23.506;2022-10-16T06:28:17;11.50;99.90
3478;DHT22;37937;61.490;23.506;2022-10-16T06:30:42;11.50;99.90
3478;DHT22;37937;61.490;23.506;2022-10-16T06:33:09;11.40;99.90
3478;DHT22;37937;61.490;23.506;2022-10-16T06:35:36;11.40;99.90
3478;DHT22;37937;61.490;23.506;2022-10-16T06:38:02;11.30;99.90
3478;DHT22;37937;61.490;23.506;2022-10-16T06:40:27;11.40;99.90
3478;DHT22;37937;61.490;23.506;2022-10-16T06:42:57;11.40;99.90
3478;DHT22;37937;61.490;23.506;2022-10-16T06:45:22;11.40;99.90
3478;DHT22;37937;61.490;23.506;2022-10-16T06:47:48;11.40;99.90
3478;DHT22;37937;61.490;23.506;2022-10-16T06:50:14;11.50;99.90
3478;DHT22;37937;61.490;23.506;2022-10-16T06:52:40;11.50;99.90
3478;DHT22;37937;61.490;23.506;2022-10-16T06:55:05;11.40;99.90
3478;DHT22;37937;61.490;23.506;2022-10-16T06:57:31;11.50;99.90
3478;DHT22;37937;61.490;23.506;2022-10-16T06:59:57;11.60;99.90
3478;DHT22;37937;61.490;23.506;2022-10-16T07:02:24;11.60;99.90
3478;DHT22;37937;61.490;23.506;2022-10-16T07:04:49;11.50;99.90
3478;DHT22;37937;61.490;23.506;2022-10-16T07:07:15;11.50;99.90
3478;DHT22;37937;61.490;23.506;2022-10-16T07:09:41;11.50;99.90
3478;DHT22;37937;61.490;23.506;2022-10-16T07:12:06;11.60;99.90
3478;DHT22;37937;61.490;23.506;2022-10-16T07:14:32;11.50;99.90
3478;DHT22;37937;61.490;23.506;2022-10-16T07:16:57;11.50;99.90
3478;DHT22;37937;61.490;23.506;2022-10-16T07:19:23;11.60;99.90
3478;DHT22;37937;61.490;23.506;2022-10-16T07:21:50;11.50;99.90
3478;DHT22;37937;61.490;23.506;2022-10-16T07:24:16;11.60;99.90
3478;DHT22;37937;61.490;23.506;2022-10-16T07:26:42;11.50;99.90
3478;DHT22;37937;61.490;23.506;2022-10-16T07:29:19;11.60;99.90
3478;DHT22;37937;61.490;23.506;2022-10-16T07:31:45;11.60;99.90
3478;DHT22;37937;61.490;23.506;2022-10-16T07:34:12;11.60;99.90
3478;DHT22;37937;61.490;23.506;2022-10-16T07:36:38;11.50;99.90
3478;DHT22;37937;61.490;23.506;2022-10-16T07:39:04;11.60;99.90
3478;DHT22;37937;61.490;23.506;2022-10-16T07:41:30;11.60;99.90
3478;DHT22;37937;61.490;23.506;2022-10-16T07:43:58;11.60;99.90
3478;DHT22;37937;61.490;23.506;2022-10-16T07:46:25;11.50;99.90
3478;DHT22;37937;61.490;23.506;2022-10-16T07:48:51;11.60;99.90
3478;DHT22;37937;61.490;23.506;2022-10-16T07:51:17;11.60;99.90
3478;DHT22;37937;61.490;23.506;2022-10-16T07:53:43;11.60;99.90
3478;DHT22;37937;61.490;23.506;2022-10-16T07:56:09;11.70;99.90
3478;DHT22;37937;61.490;23.506;2022-10-16T07:58:35;11.80;99.90
3478;DHT22;37937;61.490;23.506;2022-10-16T08:01:06;11.70;99.90
3478;DHT22;37937;61.490;23.506;2022-10-16T08:03:32;11.80;99.90
3478;DHT22;37937;61.490;23.506;2022-10-16T08:05:58;11.80;99.90
3478;DHT22;37937;61.490;23.506;2022-10-16T08:08:24;11.70;99.90
3478;DHT22;37937;61.490;23.506;2022-10-16T08:10:50;11.70;99.90
3478;DHT22;37937;61.490;23.506;2022-10-16T08:13:15;11.70;99.90
3478;DHT22;37937;61.490;23.506;2022-10-16T08:15:41;11.70;99.90
3478;DHT22;37937;61.490;23.506;2022-10-16T08:18:07;11.70;99.90
3478;DHT22;37937;61.490;23.506;2022-10-16T08:20:34;11.80;99.90
3478;DHT22;37937;61.490;23.506;2022-10-16T08:23:00;11.80;99.90
3478;DHT22;37937;61.490;23.506;2022-10-16T08:25:26;11.90;99.90
3478;DHT22;37937;61.490;23.506;2022-10-16T08:27:51;11.80;99.90
3478;DHT22;37937;61.490;23.506;2022-10-16T08:30:18;11.70;99.90
3478;DHT22;37937;61.490;23.506;2022-10-16T08:32:44;11.80;99.90
3478;DHT22;37937;61.490;23.506;2022-10-16T08:35:10;11.80;99.90
3478;DHT22;37937;61.490;23.506;2022-10-16T08:37:36;11.90;99.90
3478;DHT22;37937;61.490;23.506;2022-10-16T08:40:01;11.70;99.90
3478;DHT22;37937;61.490;23.506;2022-10-16T08:47:54;11.80;99.90
3478;DHT22;37937;61.490;23.506;2022-10-16T08:50:25;11.90;99.90
3478;DHT22;37937;61.490;23.506;2022-10-16T08:52:52;11.80;99.90
3478;DHT22;37937;61.490;23.506;2022-10-16T08:55:26;11.90;99.90
3478;DHT22;37937;61.490;23.506;2022-10-16T08:57:56;12.00;99.90
3478;DHT22;37937;61.490;23.506;2022-10-16T09:00:21;12.00;99.90
3478;DHT22;37937;61.490;23.506;2022-10-16T09:10:50;12.00;99.90
3478;DHT22;37937;61.490;23.506;2022-10-16T09:25:45;12.20;99.90
3478;DHT22;37937;61.490;23.506;2022-10-16T09:28:13;12.10;99.90
3478;DHT22;37937;61.490;23.506;2022-10-16T09:30:40;12.20;99.90
3478;DHT22;37937;61.490;23.506;2022-10-16T09:33:06;12.30;99.90
3478;DHT22;37937;61.490;23.506;2022-10-16T09:35:45;12.10;99.90
3478;DHT22;37937;61.490;23.506;2022-10-16T09:40:50;12.30;99.90
3478;DHT22;37937;61.490;23.506;2022-10-16T09:43:20;12.20;99.90
3478;DHT22;37937;61.490;23.506;2022-10-16T09:45:53;12.30;99.90
3478;DHT22;37937;61.490;23.506;2022-10-16T09:48:19;12.30;99.90
3478;DHT22;37937;61.490;23.506;2022-10-16T09:50:54;12.40;99.90
3478;DHT22;37937;61.490;23.506;2022-10-16T09:53:20;12.30;99.90
3478;DHT22;37937;61.490;23.506;2022-10-16T09:55:50;12.30;99.90
3478;DHT22;37937;61.490;23.506;2022-10-16T09:58:16;12.30;99.90
3478;DHT22;37937;61.490;23.506;2022-10-16T10:00:42;12.50;99.90
3478;DHT22;37937;61.490;23.506;2022-10-16T10:03:17;12.40;99.90
3478;DHT22;37937;61.490;23.506;2022-10-16T10:05:47;12.30;99.90
3478;DHT22;37937;61.490;23.506;2022-10-16T10:08:13;12.30;99.90
3478;DHT22;37937;61.490;23.506;2022-10-16T10:10:41;12.40;99.90
3478;DHT22;37937;61.490;23.506;2022-10-16T10:13:20;12.30;99.90
3478;DHT22;37937;61.490;23.506;2022-10-16T10:15:47;12.30;99.90
3478;DHT22;37937;61.490;23.506;2022-10-16T10:18:16;12.30;99.90
3478;DHT22;37937;61.490;23.506;2022-10-16T10:20:43;12.30;99.90
3478;DHT22;37937;61.490;23.506;2022-10-16T10:23:22;12.20;99.90
3478;DHT22;37937;61.490;23.506;2022-10-16T10:25:53;12.30;99.90
3478;DHT22;37937;61.490;23.506;2022-10-16T10:28:44;12.30;99.90
3478;DHT22;37937;61.490;23.506;2022-10-16T10:31:07;12.30;99.90
3478;DHT22;37937;61.490;23.506;2022-10-16T10:33:43;12.30;99.90
3478;DHT22;37937;61.490;23.506;2022-10-16T10:36:20;12.30;99.90
3478;DHT22;37937;61.490;23.506;2022-10-16T10:44:23;12.20;99.90
3478;DHT22;37937;61.490;23.506;2022-10-16T10:54:39;12.30;99.90
3478;DHT22;37937;61.490;23.506;2022-10-16T10:57:16;12.40;99.90
3478;DHT22;37937;61.490;23.506;2022-10-16T10:59:56;12.20;99.90
3478;DHT22;37937;61.490;23.506;2022-10-16T11:02:37;12.20;99.90
3478;DHT22;37937;61.490;23.506;2022-10-16T11:08:31;12.30;99.90
3478;DHT22;37937;61.490;23.506;2022-10-16T11:10:42;12.40;99.90
3478;DHT22;37937;61.490;23.506;2022-10-16T11:13:14;12.40;99.90
3478;DHT22;37937;61.490;23.506;2022-10-16T11:15:42;12.40;99.90
3478;DHT22;37937;61.490;23.506;2022-10-16T11:18:27;12.40;99.90
3478;DHT22;37937;61.490;23.506;2022-10-16T11:20:59;12.40;99.90
3478;DHT22;37937;61.490;23.506;2022-10-16T11:23:30;12.50;99.90
3478;DHT22;37937;61.490;23.506;2022-10-16T11:26:01;12.50;99.90
3478;DHT22;37937;61.490;23.506;2022-10-16T11:28:34;12.40;99.90
3478;DHT22;37937;61.490;23.506;2022-10-16T11:31:22;12.50;99.90
3478;DHT22;37937;61.490;23.506;2022-10-16T11:34:01;12.30;99.90
3478;DHT22;37937;61.490;23.506;2022-10-16T11:41:42;12.40;99.90
3478;DHT22;37937;61.490;23.506;2022-10-16T11:44:18;12.40;99.90
3478;DHT22;37937;61.490;23.506;2022-10-16T11:46:51;12.50;99.90
3478;DHT22;37937;61.490;23.506;2022-10-16T11:49:21;12.60;99.90
3478;DHT22;37937;61.490;23.506;2022-10-16T11:55:04;12.40;99.90
3478;DHT22;37937;61.490;23.506;2022-10-16T11:57:12;12.40;99.90
3478;DHT22;37937;61.490;23.506;2022-10-16T12:04:39;12.40;99.90
3478;DHT22;37937;61.490;23.506;2022-10-16T12:07:14;12.40;99.90
3478;DHT22;37937;61.490;23.506;2022-10-16T12:09:41;12.40;99.90
3478;DHT22;37937;61.490;23.506;2022-10-16T12:12:24;12.30;99.90
3478;DHT22;37937;61.490;23.506;2022-10-16T12:14:59;12.30;99.90
3478;DHT22;37937;61.490;23.506;2022-10-16T12:17:27;12.30;99.90
3478;DHT22;37937;61.490;23.506;2022-10-16T12:22:37;12.30;99.90
3478;DHT22;37937;61.490;23.506;2022-10-16T12:25:18;12.20;99.90
3478;DHT22;37937;61.490;23.506;2022-10-16T12:27:44;12.20;99.90
3478;DHT22;37937;61.490;23.506;2022-10-16T12:30:15;12.20;99.90
3478;DHT22;37937;61.490;23.506;2022-10-16T12:32:45;12.30;99.90
3478;DHT22;37937;61.490;23.506;2022-10-16T12:35:19;12.30;99.90
3478;DHT22;37937;61.490;23.506;2022-10-16T12:37:46;12.30;99.90
3478;DHT22;37937;61.490;23.506;2022-10-16T12:40:16;12.20;99.90
3478;DHT22;37937;61.490;23.506;2022-10-16T12:42:48;12.20;99.90
3478;DHT22;37937;61.490;23.506;2022-10-16T12:45:31;12.10;99.90
3478;DHT22;37937;61.490;23.506;2022-10-16T12:47:58;12.10;99.90
3478;DHT22;37937;61.490;23.506;2022-10-16T12:50:35;12.10;99.90
3478;DHT22;37937;61.490;23.506;2022-10-16T12:53:02;12.10;99.90
3478;DHT22;37937;61.490;23.506;2022-10-16T12:55:31;12.20;99.90
3478;DHT22;37937;61.490;23.506;2022-10-16T13:11:01;12.20;99.90
3478;DHT22;37937;61.490;23.506;2022-10-16T13:18:33;12.30;99.90
3478;DHT22;37937;61.490;23.506;2022-10-16T13:21:37;12.30;99.90
3478;DHT22;37937;61.490;23.506;2022-10-16T13:24:11;12.20;99.90
3478;DHT22;37937;61.490;23.506;2022-10-16T13:26:41;12.20;99.90
3478;DHT22;37937;61.490;23.506;2022-10-16T13:29:09;12.10;99.90
3478;DHT22;37937;61.490;23.506;2022-10-16T13:31:36;12.30;99.90
3478;DHT22;37937;61.490;23.506;2022-10-16T13:34:03;12.30;99.90
3478;DHT22;37937;61.490;23.506;2022-10-16T13:36:50;12.30;99.90
3478;DHT22;37937;61.490;23.506;2022-10-16T13:44:24;12.40;99.90
3478;DHT22;37937;61.490;23.506;2022-10-16T13:46:59;12.50;99.90
3478;DHT22;37937;61.490;23.506;2022-10-16T13:49:25;12.40;99.90
3478;DHT22;37937;61.490;23.506;2022-10-16T13:51:55;12.40;99.90
3478;DHT22;37937;61.490;23.506;2022-10-16T13:54:21;12.30;99.90
3478;DHT22;37937;61.490;23.506;2022-10-16T13:56:46;12.30;99.90
3478;DHT22;37937;61.490;23.506;2022-10-16T14:01:56;12.40;99.90
3478;DHT22;37937;61.490;23.506;2022-10-16T14:04:23;12.40;99.90
3478;DHT22;37937;61.490;23.506;2022-10-16T14:06:49;12.30;99.90
3478;DHT22;37937;61.490;23.506;2022-10-16T14:11:54;12.30;99.90
3478;DHT22;37937;61.490;23.506;2022-10-16T14:14:21;12.20;99.90
3478;DHT22;37937;61.490;23.506;2022-10-16T14:16:47;12.10;99.90
3478;DHT22;37937;61.490;23.506;2022-10-16T14:19:22;12.30;99.90
3478;DHT22;37937;61.490;23.506;2022-10-16T14:21:52;12.10;99.90
3478;DHT22;37937;61.490;23.506;2022-10-16T14:26:56;12.20;99.90
3478;DHT22;37937;61.490;23.506;2022-10-16T14:29:22;12.40;99.90
3478;DHT22;37937;61.490;23.506;2022-10-16T14:32:01;12.30;99.90
3478;DHT22;37937;61.490;23.506;2022-10-16T14:34:29;12.40;99.90
3478;DHT22;37937;61.490;23.506;2022-10-16T14:36:55;12.30;99.90
3478;DHT22;37937;61.490;23.506;2022-10-16T14:39:22;12.30;99.90
3478;DHT22;37937;61.490;23.506;2022-10-16T14:41:49;12.30;99.90
3478;DHT22;37937;61.490;23.506;2022-10-16T14:44:17;12.30;99.90
3478;DHT22;37937;61.490;23.506;2022-10-16T14:46:43;12.30;99.90
3478;DHT22;37937;61.490;23.506;2022-10-16T14:51:35;12.20;99.90
3478;DHT22;37937;61.490;23.506;2022-10-16T14:54:01;12.40;99.90
3478;DHT22;37937;61.490;23.506;2022-10-16T14:56:30;12.40;99.90
3478;DHT22;37937;61.490;23.506;2022-10-16T14:58:56;12.30;99.90
3478;DHT22;37937;61.490;23.506;2022-10-16T15:01:22;12.40;99.90
3478;DHT22;37937;61.490;23.506;2022-10-16T15:03:48;12.30;99.90
3478;DHT22;37937;61.490;23.506;2022-10-16T15:06:14;12.40;99.90
3478;DHT22;37937;61.490;23.506;2022-10-16T15:08:40;12.40;99.90
3478;DHT22;37937;61.490;23.506;2022-10-16T15:11:12;12.40;99.90
3478;DHT22;37937;61.490;23.506;2022-10-16T15:13:39;12.40;99.90
3478;DHT22;37937;61.490;23.506;2022-10-16T15:16:04;12.30;99.90
3478;DHT22;37937;61.490;23.506;2022-10-16T15:18:30;12.30;99.90
3478;DHT22;37937;61.490;23.506;2022-10-16T15:20:55;12.30;99.90
3478;DHT22;37937;61.490;23.506;2022-10-16T15:23:21;12.40;99.90
3478;DHT22;37937;61.490;23.506;2022-10-16T15:25:51;12.40;99.90
3478;DHT22;37937;61.490;23.506;2022-10-16T15:28:17;12.40;99.90
3478;DHT22;37937;61.490;23.506;2022-10-16T15:30:43;12.30;99.90
3478;DHT22;37937;61.490;23.506;2022-10-16T15:33:14;12.30;99.90
3478;DHT22;37937;61.490;23.506;2022-10-16T15:35:41;12.40;99.90
3478;DHT22;37937;61.490;23.506;2022-10-16T15:38:09;12.30;99.90
3478;DHT22;37937;61.490;23.506;2022-10-16T15:40:36;12.40;99.90
3478;DHT22;37937;61.490;23.506;2022-10-16T15:43:02;12.30;99.90
3478;DHT22;37937;61.490;23.506;2022-10-16T15:45:27;12.30;99.90
3478;DHT22;37937;61.490;23.506;2022-10-16T15:47:53;12.20;99.90
3478;DHT22;37937;61.490;23.506;2022-10-16T15:50:18;12.30;99.90
3478;DHT22;37937;61.490;23.506;2022-10-16T15:52:44;12.30;99.90
3478;DHT22;37937;61.490;23.506;2022-10-16T15:55:10;12.30;99.90
3478;DHT22;37937;61.490;23.506;2022-10-16T15:57:37;12.30;99.90
3478;DHT22;37937;61.490;23.506;2022-10-16T16:00:05;12.20;99.90
3478;DHT22;37937;61.490;23.506;2022-10-16T16:02:30;12.30;99.90
3478;DHT22;37937;61.490;23.506;2022-10-16T16:04:57;12.30;99.90
3478;DHT22;37937;61.490;23.506;2022-10-16T16:07:23;12.30;99.90
3478;DHT22;37937;61.490;23.506;2022-10-16T16:09:48;12.40;99.90
3478;DHT22;37937;61.490;23.506;2022-10-16T16:12:14;12.40;99.90
3478;DHT22;37937;61.490;23.506;2022-10-16T16:14:39;12.40;99.90
3478;DHT22;37937;61.490;23.506;2022-10-16T16:17:07;12.40;99.90
3478;DHT22;37937;61.490;23.506;2022-10-16T16:19:33;12.40;99.90
3478;DHT22;37937;61.490;23.506;2022-10-16T16:21:59;12.40;99.90
3478;DHT22;37937;61.490;23.506;2022-10-16T16:24:24;12.40;99.90
3478;DHT22;37937;61.490;23.506;2022-10-16T16:26:50;12.30;99.90
3478;DHT22;37937;61.490;23.506;2022-10-16T16:29:15;12.30;99.90
3478;DHT22;37937;61.490;23.506;2022-10-16T16:31:43;12.30;99.90
3478;DHT22;37937;61.490;23.506;2022-10-16T16:34:09;12.30;99.90
3478;DHT22;37937;61.490;23.506;2022-10-16T16:36:35;12.30;99.90
3478;DHT22;37937;61.490;23.506;2022-10-16T16:39:01;12.10;99.90
3478;DHT22;37937;61.490;23.506;2022-10-16T16:41:28;12.10;99.90
3478;DHT22;37937;61.490;23.506;2022-10-16T16:43:54;12.10;99.90
3478;DHT22;37937;61.490;23.506;2022-10-16T16:46:20;12.20;99.90
3478;DHT22;37937;61.490;23.506;2022-10-16T16:48:45;12.10;99.90
3478;DHT22;37937;61.490;23.506;2022-10-16T16:51:13;12.00;99.90
3478;DHT22;37937;61.490;23.506;2022-10-16T16:53:43;12.00;99.90
3478;DHT22;37937;61.490;23.506;2022-10-16T16:56:09;11.90;99.90
3478;DHT22;37937;61.490;23.506;2022-10-16T16:58:34;12.00;99.90
3478;DHT22;37937;61.490;23.506;2022-10-16T17:01:00;12.10;99.90
3478;DHT22;37937;61.490;23.506;2022-10-16T17:03:27;12.00;99.90
3478;DHT22;37937;61.490;23.506;2022-10-16T17:06:00;11.90;99.90
3478;DHT22;37937;61.490;23.506;2022-10-16T17:08:26;11.90;99.90
3478;DHT22;37937;61.490;23.506;2022-10-16T17:10:51;11.80;99.90
3478;DHT22;37937;61.490;23.506;2022-10-16T17:13:23;11.70;99.90
3478;DHT22;37937;61.490;23.506;2022-10-16T17:15:49;11.70;99.90
3478;DHT22;37937;61.490;23.506;2022-10-16T17:18:15;11.70;99.90
3478;DHT22;37937;61.490;23.506;2022-10-16T17:20:42;11.70;99.90